地図

経路データ

SID SEASON NUMBER BASIN SUBBASIN NAME ISO_TIME NATURE LAT LON WMO_WIND WMO_PRES WMO_AGENCY TRACK_TYPE DIST2LAND LANDFALL IFLAG USA_AGENCY USA_ATCF_ID USA_LAT USA_LON USA_RECORD USA_STATUS USA_WIND USA_PRES USA_SSHS USA_R34_NE USA_R34_SE USA_R34_SW USA_R34_NW USA_R50_NE USA_R50_SE USA_R50_SW USA_R50_NW USA_R64_NE USA_R64_SE USA_R64_SW USA_R64_NW USA_POCI USA_ROCI USA_RMW USA_EYE TOKYO_LAT TOKYO_LON TOKYO_GRADE TOKYO_WIND TOKYO_PRES TOKYO_R50_DIR TOKYO_R50_LONG TOKYO_R50_SHORT TOKYO_R30_DIR TOKYO_R30_LONG TOKYO_R30_SHORT TOKYO_LAND CMA_LAT CMA_LON CMA_CAT CMA_WIND CMA_PRES HKO_LAT HKO_LON HKO_CAT HKO_WIND HKO_PRES NEWDELHI_LAT NEWDELHI_LON NEWDELHI_GRADE NEWDELHI_WIND NEWDELHI_PRES NEWDELHI_CI NEWDELHI_DP NEWDELHI_POCI REUNION_LAT REUNION_LON REUNION_TYPE REUNION_WIND REUNION_PRES REUNION_TNUM REUNION_CI REUNION_RMW REUNION_R34_NE REUNION_R34_SE REUNION_R34_SW REUNION_R34_NW REUNION_R50_NE REUNION_R50_SE REUNION_R50_SW REUNION_R50_NW REUNION_R64_NE REUNION_R64_SE REUNION_R64_SW REUNION_R64_NW BOM_LAT BOM_LON BOM_TYPE BOM_WIND BOM_PRES BOM_TNUM BOM_CI BOM_RMW BOM_R34_NE BOM_R34_SE BOM_R34_SW BOM_R34_NW BOM_R50_NE BOM_R50_SE BOM_R50_SW BOM_R50_NW BOM_R64_NE BOM_R64_SE BOM_R64_SW BOM_R64_NW BOM_ROCI BOM_POCI BOM_EYE BOM_POS_METHOD BOM_PRES_METHOD NADI_LAT NADI_LON NADI_CAT NADI_WIND NADI_PRES WELLINGTON_LAT WELLINGTON_LON WELLINGTON_WIND WELLINGTON_PRES DS824_LAT DS824_LON DS824_STAGE DS824_WIND DS824_PRES TD9636_LAT TD9636_LON TD9636_STAGE TD9636_WIND TD9636_PRES TD9635_LAT TD9635_LON TD9635_WIND TD9635_PRES TD9635_ROCI NEUMANN_LAT NEUMANN_LON NEUMANN_CLASS NEUMANN_WIND NEUMANN_PRES MLC_LAT MLC_LON MLC_CLASS MLC_WIND MLC_PRES USA_GUST BOM_GUST BOM_GUST_PER REUNION_GUST REUNION_GUST_PER USA_SEAHGT USA_SEARAD_NE USA_SEARAD_SE USA_SEARAD_SW USA_SEARAD_NW STORM_SPEED STORM_DIR
1978276N14257 1978 100 EP MM ROSA 1978-10-02 18:00:00 TS 13.9000 -102.700 30 hurdat_epa main 417 394 O________OO___ hurdat_epa EP171978 13.9000 -102.700 TD 30 -1 13.9000 -102.700 TC 30 13.9000 -102.700 1 30 14 316
1978276N14257 1978 100 EP MM ROSA 1978-10-02 21:00:00 TS 14.3940 -103.189 main 394 366 P________PP___ EP171978 14.3902 -103.187 TD 37 0 14.3902 -103.187 TC 37 14.4096 -103.194 1 37 14 316
1978276N14257 1978 100 EP MM ROSA 1978-10-03 00:00:00 TS 14.9000 -103.700 45 hurdat_epa main 366 330 O________OO___ hurdat_epa EP171978 14.9000 -103.700 TS 45 0 14.9000 -103.700 TC 45 14.9000 -103.700 2 45 15 315
1978276N14257 1978 100 EP MM ROSA 1978-10-03 03:00:00 TS 15.4152 -104.245 main 330 302 P________PP___ EP171978 15.4300 -104.250 TS 47 0 15.4300 -104.250 TC 47 15.3562 -104.226 2 46 14 313
1978276N14257 1978 100 EP MM ROSA 1978-10-03 06:00:00 TS 15.8750 -104.792 50 hurdat_epa main 302 296 O________OP___ hurdat_epa EP171978 15.9000 -104.800 TS 50 0 15.9000 -104.800 TC 50 15.7749 -104.760 2 47 13 308
1978276N14257 1978 100 EP MM ROSA 1978-10-03 09:00:00 TS 16.2211 -105.310 main 302 300 P________PP___ EP171978 16.2374 -105.315 TS 50 0 16.2374 -105.315 TC 50 16.1562 -105.290 2 48 12 303
1978276N14257 1978 100 EP MM ROSA 1978-10-03 12:00:00 TS 16.5000 -105.800 50 hurdat_epa main 316 311 O________OO___ hurdat_epa EP171978 16.5000 -105.800 TS 50 0 16.5000 -105.800 TC 50 16.5000 -105.800 2 50 11 301
1978276N14257 1978 100 EP MM ROSA 1978-10-03 15:00:00 TS 16.7636 -106.266 main 311 307 P________PP___ EP171978 16.7498 -106.258 TS 52 0 16.7498 -106.258 TC 52 16.8188 -106.296 2 53 10 301
1978276N14257 1978 100 EP MM ROSA 1978-10-03 18:00:00 TS 17.0205 -106.714 55 hurdat_epa main 317 315 O________OP___ hurdat_epa EP171978 17.0000 -106.700 TS 55 0 17.0000 -106.700 TC 55 17.1023 -106.768 2 57 10 302
1978276N14257 1978 100 EP MM ROSA 1978-10-03 21:00:00 TS 17.3179 -107.179 main 330 322 P________PP___ EP171978 17.3075 -107.172 TS 60 0 17.3075 -107.172 TC 60 17.3596 -107.206 2 61 10 304
1978276N14257 1978 100 EP MM ROSA 1978-10-04 00:00:00 TS 17.6000 -107.600 65 hurdat_epa main 337 337 O________OO___ hurdat_epa EP171978 17.6000 -107.600 HU 65 1 17.6000 -107.600 TC 65 17.6000 -107.600 4 65 9 305
1978276N14257 1978 100 EP MM ROSA 1978-10-04 03:00:00 TS 17.8120 -107.930 main 346 346 P________PP___ EP171978 17.8073 -107.923 HU 65 1 17.8073 -107.923 TC 65 17.8309 -107.960 4 65 7 305
1978276N14257 1978 100 EP MM ROSA 1978-10-04 06:00:00 TS 18.0099 -108.215 65 hurdat_epa main 359 359 O________OP___ hurdat_epa EP171978 18.0000 -108.200 HU 65 1 18.0000 -108.200 TC 65 18.0496 -108.276 4 65 7 308
1978276N14257 1978 100 EP MM ROSA 1978-10-04 09:00:00 TS 18.2477 -108.523 main 374 368 P________PP___ EP171978 18.2425 -108.515 HU 65 1 18.2425 -108.515 TC 65 18.2685 -108.554 4 65 7 311
1978276N14257 1978 100 EP MM ROSA 1978-10-04 12:00:00 TS 18.5000 -108.800 65 hurdat_epa main 384 384 O________OO___ hurdat_epa EP171978 18.5000 -108.800 HU 65 1 18.5000 -108.800 TC 65 18.5000 -108.800 4 65 7 316
1978276N14257 1978 100 EP MM ROSA 1978-10-04 15:00:00 TS 18.7460 -109.021 main 394 389 P________PP___ EP171978 18.7424 -109.015 HU 70 1 18.7424 -109.015 TC 70 18.7605 -109.045 4 67 6 322
1978276N14257 1978 100 EP MM ROSA 1978-10-04 18:00:00 TS 19.0070 -109.212 75 hurdat_epa main 398 394 O________OP___ hurdat_epa EP171978 19.0000 -109.200 HU 75 1 19.0000 -109.200 TC 75 19.0348 -109.260 4 70 7 326
1978276N14257 1978 100 EP MM ROSA 1978-10-04 21:00:00 TS 19.3034 -109.421 main 404 369 P________PP___ EP171978 19.3000 -109.415 HU 75 1 19.3000 -109.415 TC 75 19.3168 -109.445 4 72 7 328
1978276N14257 1978 100 EP MM ROSA 1978-10-05 00:00:00 TS 19.6000 -109.600 75 hurdat_epa main 369 346 O________OO___ hurdat_epa EP171978 19.6000 -109.600 HU 75 1 19.6000 -109.600 TC 75 19.6000 -109.600 4 75 6 333
1978276N14257 1978 100 EP MM ROSA 1978-10-05 03:00:00 TS 19.8541 -109.721 main 335 313 P________PP___ EP171978 19.8500 -109.715 HU 75 1 19.8500 -109.715 TC 75 19.8708 -109.745 4 72 5 339
1978276N14257 1978 100 EP MM ROSA 1978-10-05 06:00:00 TS 20.1085 -109.812 75 hurdat_epa main 313 279 O________OP___ hurdat_epa EP171978 20.1000 -109.800 HU 75 1 20.1000 -109.800 TC 75 20.1424 -109.860 4 70 6 341
1978276N14257 1978 100 EP MM ROSA 1978-10-05 09:00:00 TS 20.3976 -109.921 main 279 245 P________PP___ EP171978 20.3925 -109.915 HU 70 1 20.3925 -109.915 TC 70 20.4178 -109.945 4 67 6 343
1978276N14257 1978 100 EP MM ROSA 1978-10-05 12:00:00 TS 20.7000 -110.000 65 hurdat_epa main 245 212 O________OO___ hurdat_epa EP171978 20.7000 -110.000 HU 65 1 20.7000 -110.000 TC 65 20.7000 -110.000 4 65 6 352
1978276N14257 1978 100 EP MM ROSA 1978-10-05 15:00:00 TS 21.0026 -110.015 main 212 178 P________PP___ EP171978 21.0000 -110.015 HU 62 0 21.0000 -110.015 TC 62 21.0131 -110.013 4 62 6 358
1978276N14257 1978 100 EP MM ROSA 1978-10-05 18:00:00 TS 21.3060 -110.000 60 hurdat_epa main 178 145 O________OP___ hurdat_epa EP171978 21.3000 -110.000 TS 60 0 21.3000 -110.000 TC 60 21.3299 -110.001 4 60 6 0
1978276N14257 1978 100 EP MM ROSA 1978-10-05 21:00:00 TS 21.6184 -109.992 main 145 111 P________PP___ EP171978 21.6150 -109.993 TS 57 0 21.6150 -109.993 TC 57 21.6318 -109.988 4 57 6 0
1978276N14257 1978 100 EP MM ROSA 1978-10-06 00:00:00 TS 21.9000 -110.000 55 hurdat_epa main 111 89 O________OO___ hurdat_epa EP171978 21.9000 -110.000 TS 55 0 21.9000 -110.000 TC 55 21.9000 -110.000 2 55 5 355
1978276N14257 1978 100 EP MM ROSA 1978-10-06 03:00:00 TS 22.1234 -110.034 main 89 67 P________PP___ EP171978 22.1225 -110.028 TS 50 0 22.1225 -110.028 TC 50 22.1271 -110.059 2 50 4 345
1978276N14257 1978 100 EP MM ROSA 1978-10-06 06:00:00 TS 22.3035 -110.109 45 hurdat_epa main 67 49 O________OP___ hurdat_epa EP171978 22.3000 -110.100 TS 45 0 22.3000 -110.100 TC 45 22.3174 -110.147 2 45 4 330
1978276N14257 1978 100 EP MM ROSA 1978-10-06 09:00:00 TS 22.4668 -110.246 main 49 45 P________PP___ EP171978 22.4650 -110.242 TS 40 0 22.4650 -110.242 TC 40 22.4740 -110.262 2 40 4 318
1978276N14257 1978 100 EP MM ROSA 1978-10-06 12:00:00 TS 22.6000 -110.400 35 hurdat_epa main 52 46 O________OO___ hurdat_epa EP171978 22.6000 -110.400 TS 35 0 22.6000 -110.400 TC 35 22.6000 -110.400 2 35 3 316
1978276N14257 1978 100 EP MM ROSA 1978-10-06 15:00:00 TS 22.7118 -110.500 main 55 52 P________PP___ EP171978 22.7149 -110.485 TS 30 -1 22.7149 -110.485 TC 30 22.6992 -110.558 2 31 3 314
1978276N14257 1978 100 EP MM ROSA 1978-10-06 18:00:00 TS 22.7965 -110.621 25 hurdat_epa main 62 62 O________OP___ hurdat_epa EP171978 22.8000 -110.600 TD 25 -1 22.8000 -110.600 TC 25 22.7777 -110.730 2 27 3 293
1978276N14257 1978 100 EP MM ROSA 1978-10-06 21:00:00 TS 22.8492 -110.844 main 82 82 P________PP___ EP171978 22.8501 -110.835 TD 22 -1 22.8501 -110.835 TC 22 22.8424 -110.912 2 23 5 283
1978276N14257 1978 100 EP MM ROSA 1978-10-07 00:00:00 TS 22.9000 -111.100 20 hurdat_epa main 102 99 O________OO___ hurdat_epa EP171978 22.9000 -111.100 TD 20 -1 22.9000 -111.100 TC 20 22.9000 -111.100 6 20 5 288
1978276N14257 1978 100 EP MM ROSA 1978-10-07 03:00:00 TS 22.9925 -111.315 main 105 105 P________P____ EP171978 22.9925 -111.315 TD 20 -1 22.9925 -111.315 TC 20 6 4 298
1978276N14257 1978 100 EP MM ROSA 1978-10-07 06:00:00 ET 23.1000 -111.500 20 hurdat_epa main 113 112 O________O____ hurdat_epa EP171978 23.1000 -111.500 ET 20 -4 23.1000 -111.500 20 6 4 303
1978276N14257 1978 100 EP MM ROSA 1978-10-07 09:00:00 ET 23.2000 -111.665 main 117 108 P________P____ EP171978 23.2000 -111.665 ET 20 -4 23.2000 -111.665 20 6 3 306
1978276N14257 1978 100 EP MM ROSA 1978-10-07 12:00:00 ET 23.3000 -111.800 20 hurdat_epa main 114 112 O________O____ hurdat_epa EP171978 23.3000 -111.800 ET 20 -4 23.3000 -111.800 20 3 312
1978276N14257 1978 100 EP MM ROSA 1978-10-07 15:00:00 ET 23.4000 -111.907 main 112 108 P________P____ EP171978 23.4000 -111.907 ET 20 -4 23.4000 -111.907 20 3 317
1978276N14257 1978 100 EP MM ROSA 1978-10-07 18:00:00 ET 23.5000 -112.000 20 hurdat_epa main 108 O________O____ hurdat_epa EP171978 23.5000 -112.000 ET 20 -4 23.5000 -112.000 20 3 320

IBTrACS Databaseについて

本データベースは、米国NOAAが公開する1842年以降の世界の熱帯低気圧のベストトラックデータアーカイブInternational Best Track Archive for Climate Stewardship (IBTrACS)を、ウェブで閲覧しやすい形式に変換したものです。

最終更新日:2021-11-26